Time;durP1;ratioP1;P1;durP2;ratioP2;P2;SDS_P1;SDS_P2;PMS_P1;PMS_P2;Temp;Humidity;BMP_temperature;BMP_pressure;BME280_temperature;BME280_humidity;BME280_pressure;Samples;Min_cycle;Max_cycle;Signal;HPM_P1;HPM_P2
2023/06/22 05:01:03;;;;;;;;;9.00;7.00;;;;;24.56;58.67;-15457.84;5626893;23;46050;-85
2023/06/22 05:03:28;;;;;;;;;8.00;8.00;;;;;24.67;59.32;-15798.59;4926111;28;47311;-87
2023/06/22 05:05:54;;;;;;;;;10.00;8.33;;;;;24.45;59.62;-16132.91;4915272;28;48936;-84
2023/06/22 05:08:19;;;;;;;;;8.67;8.33;;;;;24.50;59.99;-16810.94;4972079;28;45850;-85
2023/06/22 05:10:48;;;;;;;;;9.67;8.00;;;;;24.39;61.46;-18500.69;4983997;28;45547;-83
2023/06/22 05:13:16;;;;;;;;;11.33;8.33;;;;;24.60;61.88;-19182.50;4920052;28;45590;-86
2023/06/22 05:15:41;;;;;;;;;12.00;8.00;;;;;24.58;60.88;-18843.72;4906665;28;53798;-85
2023/06/22 05:18:06;;;;;;;;;6.67;6.67;;;;;24.51;62.42;-19856.94;4939885;28;45820;-87
2023/06/22 05:20:34;;;;;;;;;10.00;8.67;;;;;24.54;63.06;-19859.72;4914951;28;45522;-85
2023/06/22 05:22:59;;;;;;;;;15.00;9.33;;;;;24.46;63.37;-19857.59;4933891;28;46205;-91
2023/06/22 05:25:25;;;;;;;;;9.00;9.00;;;;;23.90;63.77;-19843.00;4934663;28;50587;-91
2023/06/22 05:27:51;;;;;;;;;9.00;9.00;;;;;24.33;64.28;-19854.28;4912287;28;45501;-89
2023/06/22 05:30:18;;;;;;;;;9.67;8.33;;;;;24.17;64.09;-19850.03;4911753;28;45652;-90
2023/06/22 05:32:44;;;;;;;;;10.67;10.00;;;;;24.12;65.39;-19848.84;4911572;28;46106;-89
2023/06/22 05:35:09;;;;;;;;;12.00;11.00;;;;;24.07;65.16;-19847.38;4921549;28;45866;-90
2023/06/22 05:37:34;;;;;;;;;10.00;10.00;;;;;24.11;65.52;-19848.56;4913709;28;45494;-89
2023/06/22 05:40:00;;;;;;;;;7.67;7.67;;;;;23.68;66.64;-19837.28;4895049;28;45863;-90
2023/06/22 05:42:31;;;;;;;;;10.67;10.00;;;;;23.38;66.43;-19829.72;4933865;28;45712;-90
2023/06/22 05:44:58;;;;;;;;;12.33;12.33;;;;;23.11;67.21;-19822.56;4915289;28;45450;-96
2023/06/22 05:47:24;;;;;;;;;15.67;12.67;;;;;24.04;68.08;-19846.72;4934038;23;45498;-79
2023/06/22 05:49:49;;;;;;;;;23.33;20.33;;;;;24.08;67.78;-19847.63;4895701;29;45671;-79
2023/06/22 05:52:14;;;;;;;;;13.33;13.33;;;;;24.07;68.71;-19847.50;4895211;29;47044;-79
2023/06/22 05:54:41;;;;;;;;;13.33;13.33;;;;;24.01;68.20;-19846.03;4871274;28;45502;-79
2023/06/22 05:57:07;;;;;;;;;20.33;18.00;;;;;23.78;69.47;-19840.06;4895981;28;45717;-80
2023/06/22 05:59:32;;;;;;;;;16.33;16.00;;;;;23.93;69.83;-19843.94;4910583;28;45543;-80
2023/06/22 06:01:57;;;;;;;;;18.33;17.00;;;;;23.89;70.16;-19842.72;4898277;28;45596;-79
2023/06/22 06:04:22;;;;;;;;;22.00;17.00;;;;;23.72;71.39;-19838.47;4877754;28;45879;-79
2023/06/22 06:06:48;;;;;;;;;14.33;14.33;;;;;23.56;71.80;-19834.22;4891949;28;45710;-79
2023/06/22 06:09:17;;;;;;;;;17.67;17.67;;;;;23.59;71.33;-19835.16;4879656;28;45523;-79
2023/06/22 06:11:42;;;;;;;;;18.67;17.00;;;;;23.66;72.67;-19836.75;4897282;28;47102;-79
2023/06/22 06:14:07;;;;;;;;;17.33;17.00;;;;;23.70;73.20;-19837.81;4897833;28;45586;-79
2023/06/22 06:16:33;;;;;;;;;20.00;18.33;;;;;23.56;74.15;-19834.38;4896674;28;46998;-79
2023/06/22 06:18:58;;;;;;;;;15.33;14.33;;;;;23.60;74.83;-19835.31;4895637;28;46933;-79
2023/06/22 06:21:23;;;;;;;;;16.67;16.67;;;;;23.60;74.57;-19835.31;4894405;28;46270;-78
2023/06/22 06:23:49;;;;;;;;;19.67;19.67;;;;;23.53;74.48;-19833.44;4893857;28;45740;-79
2023/06/22 06:26:16;;;;;;;;;15.67;15.67;;;;;23.35;75.99;-19828.94;4893764;28;45511;-79
2023/06/22 06:28:42;;;;;;;;;18.00;15.33;;;;;23.31;77.11;-19827.88;4896352;28;45542;-79
2023/06/22 06:31:08;;;;;;;;;18.67;16.67;;;;;23.21;76.97;-19825.22;4891408;28;47658;-79
2023/06/22 06:33:34;;;;;;;;;22.00;19.00;;;;;23.28;77.76;-19827.06;4893653;28;45682;-79
2023/06/22 06:36:01;;;;;;;;;19.00;18.67;;;;;23.39;77.23;-19830.00;4891456;28;45871;-78
2023/06/22 06:38:27;;;;;;;;;18.67;18.67;;;;;23.27;78.43;-15507.28;4895073;29;45562;-78
2023/06/22 06:40:52;;;;;;;;;19.00;15.00;;;;;23.30;78.54;-12786.94;4873779;28;46297;-78
2023/06/22 06:43:17;;;;;;;;;17.67;17.67;;;;;23.30;78.91;-5976.31;4892684;28;45583;-78
2023/06/22 06:45:43;;;;;;;;;19.00;17.33;;;;;23.21;79.59;-607.00;4866101;28;45669;-77
2023/06/22 06:48:09;;;;;;;;;20.00;18.00;;;;;23.20;79.82;7679.53;4901143;28;45404;-77
2023/06/22 06:50:34;;;;;;;;;20.33;18.33;;;;;23.20;79.07;-4284.19;4895555;29;45456;-77
2023/06/22 06:52:59;;;;;;;;;19.33;18.33;;;;;23.15;79.98;975.38;4892111;28;45762;-77
2023/06/22 06:55:25;;;;;;;;;19.33;18.33;;;;;23.06;80.06;701.69;4890146;28;45625;-78
2023/06/22 06:57:52;;;;;;;;;20.67;19.33;;;;;23.12;80.56;10587.38;4895755;29;45518;-78
2023/06/22 07:00:18;;;;;;;;;25.67;17.33;;;;;23.08;80.64;11067.66;4895555;28;45951;-78
2023/06/22 07:02:45;;;;;;;;;17.67;17.67;;;;;22.95;80.87;24540.44;4896903;28;45760;-78
2023/06/22 07:05:12;;;;;;;;;22.00;22.00;;;;;22.97;81.83;49856.09;4893806;28;45825;-78
2023/06/22 07:07:38;;;;;;;;;28.00;28.00;;;;;23.02;82.69;57967.22;4893434;29;45522;-78
2023/06/22 07:10:05;;;;;;;;;22.33;19.33;;;;;23.02;82.20;51602.50;4902381;28;47306;-79
2023/06/22 07:12:30;;;;;;;;;21.00;18.00;;;;;22.82;81.90;50090.34;4895723;28;45570;-78
2023/06/22 07:15:04;;;;;;;;;39.00;33.00;;;;;22.82;82.31;49338.56;4910389;28;45852;-78
2023/06/22 07:17:30;;;;;;;;;34.67;30.33;;;;;22.79;82.56;59425.88;4880221;28;45447;-79
2023/06/22 07:19:55;;;;;;;;;22.67;19.67;;;;;22.87;83.47;67445.84;4895603;28;46126;-78
2023/06/22 07:22:21;;;;;;;;;21.00;20.00;;;;;22.89;82.79;64343.44;4895193;28;47130;-78
2023/06/22 07:24:46;;;;;;;;;18.67;18.67;;;;;22.81;83.07;62982.84;4895362;28;45542;-78
2023/06/22 07:27:12;;;;;;;;;24.67;22.67;;;;;22.86;83.39;71643.81;4896426;28;45662;-77
2023/06/22 07:29:39;;;;;;;;;23.67;22.00;;;;;22.80;84.48;79376.63;4909324;28;45790;-78
2023/06/22 07:32:05;;;;;;;;;24.00;20.00;;;;;22.76;85.04;83314.28;4917549;28;45376;-77
2023/06/22 07:34:30;;;;;;;;;22.67;20.00;;;;;;;;4908306;28;45459;-77
2023/06/22 07:36:55;;;;;;;;;25.00;22.00;;;;;22.62;85.84;93031.94;4898639;28;45392;-77
2023/06/22 07:39:25;;;;;;;;;29.67;24.00;;;;;22.77;86.25;91238.03;4897948;28;45569;-78
2023/06/22 07:41:51;;;;;;;;;21.33;20.00;;;;;22.72;86.28;91588.91;4900350;28;45454;-78
2023/06/22 07:44:16;;;;;;;;;19.33;19.33;;;;;22.57;86.57;94894.53;4899338;28;45470;-80
2023/06/22 07:46:41;;;;;;;;;25.33;22.67;;;;;22.81;86.09;92903.94;4898455;28;45974;-79
2023/06/22 07:49:08;;;;;;;;;26.00;23.67;;;;;22.80;85.56;89246.94;4904456;28;47410;-77
2023/06/22 07:51:33;;;;;;;;;29.33;25.00;;;;;22.68;85.31;91799.53;4897254;28;45585;-78
2023/06/22 07:53:59;;;;;;;;;26.33;21.67;;;;;22.79;86.22;96143.34;4897538;28;45517;-78
2023/06/22 07:56:24;;;;;;;;;25.00;23.00;;;;;22.78;85.18;93881.19;4898728;28;45594;-78
2023/06/22 07:58:49;;;;;;;;;25.67;24.33;;;;;22.72;86.57;98636.00;4902322;28;45387;-78
2023/06/22 08:01:15;;;;;;;;;23.33;22.33;;;;;22.72;86.91;102376.69;4906011;28;45451;-79
2023/06/22 08:03:40;;;;;;;;;19.67;18.33;;;;;22.64;86.67;101672.41;4898749;28;45820;-78
2023/06/22 08:06:08;;;;;;;;;24.67;23.00;;;;;22.77;86.93;102744.25;4901923;28;45517;-79
2023/06/22 08:08:34;;;;;;;;;22.33;22.33;;;;;22.77;87.01;103723.16;4904019;28;47407;-80
2023/06/22 08:10:59;;;;;;;;;24.67;22.67;;;;;22.76;86.71;104715.03;4924290;28;45461;-79
2023/06/22 08:13:24;;;;;;;;;27.00;24.33;;;;;22.75;87.36;106378.28;4896800;28;45526;-79
2023/06/22 08:15:50;;;;;;;;;24.33;20.67;;;;;22.69;86.98;104810.47;4888742;28;45607;-79
2023/06/22 08:18:16;;;;;;;;;22.67;20.33;;;;;22.65;87.33;105872.34;4902446;28;47149;-79
2023/06/22 08:20:42;;;;;;;;;29.33;27.33;;;;;22.58;87.47;108501.84;4909201;28;45419;-79
2023/06/22 08:23:07;;;;;;;;;20.33;20.33;;;;;22.61;87.75;108894.81;4897318;28;45483;-78
2023/06/22 08:25:34;;;;;;;;;26.33;22.67;;;;;22.63;88.23;109138.09;4898752;28;45814;-78
2023/06/22 08:28:00;;;;;;;;;25.00;24.67;;;;;22.68;88.64;108577.44;4897507;28;46762;-78
2023/06/22 08:30:25;;;;;;;;;26.67;23.67;;;;;22.60;88.11;107423.22;4891455;28;45428;-78
2023/06/22 08:32:50;;;;;;;;;25.67;24.33;;;;;22.66;87.77;107453.22;4899798;28;45529;-77
2023/06/22 08:35:16;;;;;;;;;25.00;21.00;;;;;22.67;87.84;107468.66;4901592;28;45555;-78
2023/06/22 08:37:41;;;;;;;;;25.33;23.00;;;;;22.67;88.30;111481.38;4896680;28;45844;-80
2023/06/22 08:40:09;;;;;;;;;22.00;20.67;;;;;22.62;87.48;107688.16;4898154;28;45436;-78
2023/06/22 08:42:40;;;;;;;;;28.67;24.00;;;;;22.48;88.15;109707.38;4897602;28;45505;-78
2023/06/22 08:45:05;;;;;;;;;24.33;23.33;;;;;;;;4884842;28;45713;-78
2023/06/22 08:47:31;;;;;;;;;26.33;23.33;;;;;22.46;88.31;110494.94;4904499;28;46195;-77
2023/06/22 08:49:56;;;;;;;;;78.00;65.75;;;;;22.68;88.09;110075.03;4900003;28;45529;-77
2023/06/22 08:52:23;;;;;;;;;34.00;31.00;;;;;22.67;88.18;110676.00;4897570;28;45492;-77
2023/06/22 08:54:48;;;;;;;;;25.00;22.67;;;;;22.50;88.16;110604.13;4896564;28;45432;-81
2023/06/22 08:57:14;;;;;;;;;21.67;19.67;;;;;22.41;87.63;108847.88;4897709;28;46942;-80
2023/06/22 08:59:40;;;;;;;;;17.33;16.33;;;;;22.63;88.07;110817.34;4899339;28;45415;-78
2023/06/22 09:02:05;;;;;;;;;20.67;19.33;;;;;22.62;88.25;112410.03;4899124;28;45486;-80
2023/06/22 09:04:34;;;;;;;;;24.00;20.67;;;;;22.55;88.34;109937.31;4898406;28;45783;-80
2023/06/22 09:06:59;;;;;;;;;24.00;21.00;;;;;;;;4961599;28;46188;-81
2023/06/22 09:09:25;;;;;;;;;25.00;21.67;;;;;22.68;88.39;110932.97;4951936;28;45503;-80
2023/06/22 09:11:50;;;;;;;;;19.00;18.00;;;;;22.67;88.80;113160.81;4922312;28;45410;-79
2023/06/22 09:14:15;;;;;;;;;23.00;19.33;;;;;22.71;88.53;110942.31;4898138;28;45445;-81
2023/06/22 09:16:41;;;;;;;;;23.33;20.67;;;;;22.53;88.41;110460.00;4897086;28;45996;-81
2023/06/22 09:19:06;;;;;;;;;22.33;20.67;;;;;22.77;87.72;109010.66;4880083;28;45484;-80
2023/06/22 09:21:32;;;;;;;;;23.00;19.67;;;;;22.82;88.76;111323.53;4896488;28;46123;-81
2023/06/22 09:23:57;;;;;;;;;18.67;18.67;;;;;22.87;88.77;112477.66;4897790;28;45596;-80
2023/06/22 09:26:23;;;;;;;;;19.33;17.67;;;;;22.87;87.28;105261.56;4889096;28;48434;-79
2023/06/22 09:28:49;;;;;;;;;18.67;17.33;;;;;22.82;87.11;102977.81;4900436;28;45432;-79
2023/06/22 09:31:16;;;;;;;;;15.67;15.67;;;;;22.93;86.46;93415.94;4896621;28;45769;-79
2023/06/22 09:33:41;;;;;;;;;18.00;14.67;;;;;22.96;86.58;98093.22;4896348;28;45488;-79
2023/06/22 09:36:07;;;;;;;;;16.33;16.00;;;;;22.92;86.89;100396.13;4897492;28;46114;-80
2023/06/22 09:38:38;;;;;;;;;20.33;18.00;;;;;22.77;87.63;109696.91;4894115;28;45534;-79
2023/06/22 09:41:04;;;;;;;;;20.33;16.67;;;;;22.82;87.62;107247.41;4892854;28;45463;-79
2023/06/22 09:43:32;;;;;;;;;17.00;14.67;;;;;22.95;86.36;96695.53;4905815;28;45475;-78
2023/06/22 09:45:57;;;;;;;;;19.67;17.33;;;;;22.92;86.93;104562.16;4896400;28;46145;-79
2023/06/22 09:48:23;;;;;;;;;14.67;14.67;;;;;23.01;87.65;109720.75;4896208;28;45467;-78
2023/06/22 09:50:48;;;;;;;;;23.33;19.33;;;;;23.03;87.89;106830.09;4897475;28;45817;-78
2023/06/22 09:53:13;;;;;;;;;18.67;18.67;;;;;22.99;87.04;103562.53;4898053;28;45677;-79
2023/06/22 09:55:39;;;;;;;;;19.67;18.00;;;;;22.93;87.09;101349.25;4908701;28;46910;-79
2023/06/22 09:58:04;;;;;;;;;24.33;19.33;;;;;23.11;87.43;105447.03;4894906;28;45810;-79
2023/06/22 10:00:30;;;;;;;;;21.00;17.33;;;;;23.03;87.43;101362.94;4895460;28;45464;-77
2023/06/22 10:02:55;;;;;;;;;20.67;16.33;;;;;23.14;87.58;100607.78;4880173;28;45614;-78
2023/06/22 10:05:25;;;;;;;;;18.33;16.00;;;;;23.22;88.08;108709.78;4908226;28;47180;-78
2023/06/22 10:07:50;;;;;;;;;17.00;15.33;;;;;23.24;87.89;105575.63;4912473;28;45488;-77
2023/06/22 10:10:16;;;;;;;;;16.67;15.00;;;;;23.34;88.40;107367.69;4962367;28;45823;-77
2023/06/22 10:12:44;;;;;;;;;18.00;16.00;;;;;23.43;87.75;100854.28;4896109;28;45522;-77
2023/06/22 10:15:10;;;;;;;;;17.33;14.67;;;;;23.52;87.17;95733.25;4897178;28;46401;-77
2023/06/22 10:17:35;;;;;;;;;10.67;10.67;;;;;23.63;88.24;105605.66;4902500;28;45579;-77
2023/06/22 10:20:05;;;;;;;;;16.33;15.00;;;;;23.74;86.95;84558.97;4896501;28;45549;-76
2023/06/22 10:22:31;;;;;;;;;17.33;17.00;;;;;23.83;86.69;88138.81;4898105;28;45856;-77
2023/06/22 10:24:56;;;;;;;;;16.00;15.00;;;;;23.84;87.17;90222.25;4910451;28;46052;-77
2023/06/22 10:27:22;;;;;;;;;17.67;16.33;;;;;23.91;86.02;72223.59;4899125;28;45432;-77
2023/06/22 10:29:48;;;;;;;;;19.67;17.67;;;;;24.07;86.30;84234.34;4896370;28;45491;-75
2023/06/22 10:32:13;;;;;;;;;15.67;13.67;;;;;24.13;85.18;46680.69;4904374;28;45953;-77
2023/06/22 10:34:38;;;;;;;;;16.33;15.00;;;;;24.31;84.97;33665.94;4894563;28;47280;-77
2023/06/22 10:37:04;;;;;;;;;13.67;13.00;;;;;24.43;85.31;44525.75;4894892;28;53012;-77
2023/06/22 10:39:29;;;;;;;;;15.33;14.67;;;;;24.58;83.82;5295.53;4898248;28;45446;-77
2023/06/22 10:41:56;;;;;;;;;12.67;12.67;;;;;24.71;84.92;38307.66;4897043;28;45524;-78
2023/06/22 10:44:21;;;;;;;;;17.67;12.67;;;;;25.10;83.20;4054.09;4894476;28;47164;-76
2023/06/22 10:46:46;;;;;;;;;9.33;9.33;;;;;25.35;83.80;3146.59;4897657;28;45474;-76
2023/06/22 10:49:12;;;;;;;;;12.00;12.00;;;;;25.68;82.47;-15219.28;4903706;28;45527;-76
2023/06/22 10:51:37;;;;;;;;;16.00;15.00;;;;;25.90;81.09;-19894.81;4899395;28;45513;-76
2023/06/22 10:54:04;;;;;;;;;11.33;10.00;;;;;25.87;79.11;-19894.16;4894601;28;47213;-76
2023/06/22 10:56:29;;;;;;;;;11.00;11.00;;;;;26.01;79.27;-19897.59;4898797;28;45452;-76
2023/06/22 10:58:54;;;;;;;;;14.67;14.00;;;;;25.83;77.31;-19893.09;4895445;28;45518;-76
2023/06/22 11:01:20;;;;;;;;;11.00;9.67;;;;;25.93;78.09;-19895.59;4897963;28;45790;-76
2023/06/22 11:03:46;;;;;;;;;14.00;11.00;;;;;25.82;77.58;-19892.81;4912087;28;47466;-78
2023/06/22 11:06:11;;;;;;;;;12.67;12.67;;;;;25.88;77.06;-19894.41;4901322;28;45515;-76
2023/06/22 11:08:36;;;;;;;;;14.00;12.33;;;;;25.72;78.15;-19890.03;4899989;28;45545;-76
2023/06/22 11:11:02;;;;;;;;;12.67;12.67;;;;;25.68;77.73;-19889.25;4898219;28;45407;-77
2023/06/22 11:13:27;;;;;;;;;15.33;14.00;;;;;26.03;78.15;-19898.25;4881384;28;45663;-77
2023/06/22 11:15:52;;;;;;;;;12.67;12.67;;;;;26.15;78.16;-19901.28;4929913;28;45729;-76
2023/06/22 11:18:18;;;;;;;;;10.00;10.00;;;;;26.20;76.42;-19902.47;4900186;28;45647;-77
2023/06/22 11:20:43;;;;;;;;;14.00;12.33;;;;;26.28;75.99;-19904.72;4878033;28;45574;-77
2023/06/22 11:23:08;;;;;;;;;12.00;11.67;;;;;26.29;75.69;-19905.00;4880580;28;46985;-77
2023/06/22 11:25:38;;;;;;;;;12.00;12.00;;;;;26.20;76.22;-19902.47;4900727;28;45646;-77
2023/06/22 11:28:04;;;;;;;;;12.00;12.00;;;;;26.10;76.79;-19899.97;4899894;28;45525;-80
2023/06/22 11:30:30;;;;;;;;;11.67;10.00;;;;;26.24;75.29;-19903.53;4908787;28;45492;-76
2023/06/22 11:32:58;;;;;;;;;11.67;11.67;;;;;26.05;75.94;-19898.66;4900175;28;48139;-76
2023/06/22 11:35:23;;;;;;;;;10.33;10.33;;;;;26.26;75.24;-19904.19;4908526;28;45681;-77
2023/06/22 11:37:49;;;;;;;;;11.67;9.33;;;;;26.24;75.50;-19903.66;4900903;28;45469;-77
2023/06/22 11:40:14;;;;;;;;;9.00;9.00;;;;;26.24;73.39;-19903.53;4906957;28;45579;-77
2023/06/22 11:42:39;;;;;;;;;12.67;12.00;;;;;26.22;73.55;-19903.16;4901774;28;46076;-76
2023/06/22 11:45:07;;;;;;;;;16.67;14.33;;;;;26.03;72.41;-19898.25;4907147;28;45473;-76
2023/06/22 11:47:32;;;;;;;;;12.67;12.00;;;;;26.18;72.95;-19901.97;4889308;28;45463;-78
2023/06/22 11:49:58;;;;;;;;;13.00;12.00;;;;;26.17;71.89;-19901.81;4896896;28;45475;-78
2023/06/22 11:52:23;;;;;;;;;9.00;9.00;;;;;26.08;71.69;-19899.56;4900556;28;47586;-74
2023/06/22 11:54:48;;;;;;;;;11.33;9.33;;;;;26.10;73.15;-19900.09;4889938;28;45452;-77
2023/06/22 11:57:13;;;;;;;;;13.33;11.00;;;;;26.09;71.33;-19899.84;4912721;28;45499;-78
2023/06/22 11:59:39;;;;;;;;;10.67;10.67;;;;;26.10;72.38;-19899.97;4917456;28;45428;-77
2023/06/22 12:02:07;;;;;;;;;12.33;11.00;;;;;26.08;72.43;-19899.44;4915214;28;48922;-76
2023/06/22 12:04:33;;;;;;;;;12.00;12.00;;;;;26.13;72.72;-19900.63;4911818;28;45606;-75
2023/06/22 12:06:58;;;;;;;;;12.33;10.67;;;;;26.18;72.57;-19902.09;4909204;28;45435;-75
2023/06/22 12:09:23;;;;;;;;;11.67;10.33;;;;;26.16;73.18;-19901.44;4932553;28;45511;-78
2023/06/22 12:11:49;;;;;;;;;10.67;10.67;;;;;26.37;72.72;-19906.97;4898973;28;46793;-76
2023/06/22 12:14:14;;;;;;;;;13.67;12.33;;;;;26.39;71.72;-19907.50;4896458;28;45470;-77
2023/06/22 12:16:39;;;;;;;;;11.67;10.33;;;;;26.66;70.90;-19914.50;4928813;28;45897;-76
2023/06/22 12:19:05;;;;;;;;;13.67;10.67;;;;;27.03;70.41;-19924.03;4897764;29;45883;-75
2023/06/22 12:21:30;;;;;;;;;9.67;9.67;;;;;27.09;69.23;-19925.63;4881804;29;46208;-76
2023/06/22 12:23:55;;;;;;;;;11.33;11.33;;;;;27.55;68.76;-19937.38;4906641;28;45468;-75
2023/06/22 12:26:21;;;;;;;;;10.33;9.33;;;;;27.33;68.08;-19931.81;4896982;28;45325;-75
2023/06/22 12:28:47;;;;;;;;;12.00;12.00;;;;;27.66;67.19;-19940.28;4897913;28;45583;-74
2023/06/22 12:31:14;;;;;;;;;10.67;10.67;;;;;27.46;68.06;-19935.00;4914751;28;45784;-77
2023/06/22 12:33:39;;;;;;;;;11.33;11.33;;;;;27.46;66.61;-19935.00;4910180;28;45399;-76
2023/06/22 12:36:05;;;;;;;;;8.00;8.00;;;;;27.31;66.28;-19931.16;4909716;28;45494;-77
2023/06/22 12:38:30;;;;;;;;;12.67;12.67;;;;;27.27;67.41;-19930.25;4909091;28;45402;-77
2023/06/22 12:40:55;;;;;;;;;11.00;11.00;;;;;27.26;67.09;-19929.84;4898055;28;46538;-77
2023/06/22 12:43:21;;;;;;;;;15.00;13.67;;;;;27.22;65.43;-19928.78;4908353;28;45944;-83
2023/06/22 12:45:46;;;;;;;;;12.33;12.33;;;;;27.13;66.04;-19926.53;4894533;28;45522;-77
2023/06/22 12:48:12;;;;;;;;;12.00;12.00;;;;;26.93;67.02;-19921.53;4889376;28;45544;-77
2023/06/22 12:50:38;;;;;;;;;14.33;14.00;;;;;26.88;67.30;-19920.06;4906317;28;46448;-79
2023/06/22 12:53:04;;;;;;;;;14.67;12.67;;;;;26.70;66.11;-19915.56;4901567;28;45715;-79
2023/06/22 12:55:29;;;;;;;;;18.67;15.67;;;;;26.77;66.22;-19917.16;4902461;28;45667;-78
2023/06/22 12:57:55;;;;;;;;;14.33;14.33;;;;;26.91;66.81;-19920.88;4895985;28;45629;-78
2023/06/22 13:00:20;;;;;;;;;17.00;12.67;;;;;26.98;65.95;-19922.56;4897950;28;46518;-78
2023/06/22 13:02:46;;;;;;;;;18.33;16.00;;;;;26.85;66.52;-19919.28;4876914;28;45355;-79
2023/06/22 13:05:11;;;;;;;;;14.33;14.33;;;;;27.04;64.62;-19924.16;4894169;28;45840;-79
2023/06/22 13:07:36;;;;;;;;;15.33;15.33;;;;;27.11;65.52;-19926.00;4896678;28;45510;-78
2023/06/22 13:10:02;;;;;;;;;17.33;17.33;;;;;27.07;64.71;-19925.09;4908915;28;45546;-83
2023/06/22 13:12:28;;;;;;;;;15.67;15.00;;;;;27.11;65.94;-19926.16;4896622;28;45407;-76
2023/06/22 13:14:53;;;;;;;;;13.00;12.33;;;;;27.06;64.56;-19924.81;4906450;28;45589;-78
2023/06/22 13:17:19;;;;;;;;;16.33;16.33;;;;;27.01;64.69;-19923.50;4905468;28;45567;-78
2023/06/22 13:19:44;;;;;;;;;21.67;19.33;;;;;26.83;64.57;-19918.88;4902004;28;46058;-78
2023/06/22 13:22:30;;;;;;;;;16.33;15.33;;;;;26.97;64.87;-19922.31;4904496;28;45917;-78
2023/06/22 13:24:56;;;;;;;;;21.33;15.67;;;;;26.95;65.43;-19922.06;4894931;28;45452;-79
2023/06/22 13:27:22;;;;;;;;;18.67;18.67;;;;;26.78;64.63;-19917.44;4897488;28;45558;-80
2023/06/22 13:29:47;;;;;;;;;16.33;12.67;;;;;26.73;64.71;-19916.22;4880062;28;48587;-79
2023/06/22 13:32:12;;;;;;;;;17.00;15.67;;;;;26.66;64.85;-19914.38;4896766;28;46276;-80
2023/06/22 13:34:38;;;;;;;;;13.67;13.67;;;;;26.81;64.74;-19918.34;4901942;28;45466;-78
2023/06/22 13:37:04;;;;;;;;;19.67;14.67;;;;;26.79;64.51;-19917.69;4897566;28;45440;-78
2023/06/22 13:39:29;;;;;;;;;15.33;14.67;;;;;26.68;63.57;-19915.03;4898679;28;46137;-78
2023/06/22 13:41:54;;;;;;;;;14.00;11.67;;;;;26.75;63.53;-19916.75;4881626;28;45782;-78
2023/06/22 13:44:22;;;;;;;;;18.00;15.00;;;;;26.74;65.13;-19916.63;4903926;28;45491;-79
2023/06/22 13:46:47;;;;;;;;;14.67;13.00;;;;;26.70;64.37;-19915.44;4909978;28;45463;-78
2023/06/22 13:49:12;;;;;;;;;14.00;13.00;;;;;26.73;65.17;-19916.38;4898160;28;45925;-79
2023/06/22 13:51:38;;;;;;;;;15.00;13.67;;;;;26.73;64.17;-19916.38;4961091;28;45544;-77
2023/06/22 13:54:03;;;;;;;;;12.00;12.00;;;;;26.74;64.97;-19916.50;4909380;28;45447;-78
2023/06/22 13:56:28;;;;;;;;;12.33;12.33;;;;;26.61;63.97;-19913.19;4879768;28;45571;-79
2023/06/22 13:58:54;;;;;;;;;16.33;12.33;;;;;26.66;63.89;-19914.50;4899505;28;47146;-78
2023/06/22 14:01:19;;;;;;;;;15.00;13.00;;;;;26.70;64.03;-19915.56;4904210;28;46645;-78
2023/06/22 14:03:46;;;;;;;;;15.33;14.00;;;;;26.57;64.44;-19912.00;4901856;28;45736;-78
2023/06/22 14:06:12;;;;;;;;;11.33;10.33;;;;;26.61;65.40;-19913.19;4928615;28;45458;-79
2023/06/22 14:08:37;;;;;;;;;12.00;12.00;;;;;26.65;63.42;-19914.13;4888878;28;46248;-79
2023/06/22 14:11:03;;;;;;;;;10.67;10.67;;;;;26.67;64.65;-19914.66;4955336;28;46807;-79
2023/06/22 14:13:28;;;;;;;;;10.00;9.33;;;;;26.66;63.01;-19914.38;4897858;28;45727;-78
2023/06/22 14:15:54;;;;;;;;;11.33;10.33;;;;;26.64;62.70;-19914.00;4897189;28;45434;-79
2023/06/22 14:18:19;;;;;;;;;11.00;11.00;;;;;26.60;62.85;-19912.94;4896583;28;47229;-79
2023/06/22 14:20:44;;;;;;;;;10.00;10.00;;;;;26.47;63.40;-19909.50;4902199;28;45435;-80
2023/06/22 14:23:10;;;;;;;;;14.33;9.33;;;;;26.49;62.94;-19910.03;4904452;28;45601;-80
2023/06/22 14:25:35;;;;;;;;;8.67;7.33;;;;;26.50;63.44;-19910.28;4878463;28;45451;-81
2023/06/22 14:28:00;;;;;;;;;9.67;7.67;;;;;26.58;63.08;-19912.28;4901979;28;48604;-83
2023/06/22 14:30:26;;;;;;;;;8.00;8.00;;;;;26.57;62.27;-19912.00;4896670;28;45522;-83
2023/06/22 14:32:51;;;;;;;;;7.33;7.33;;;;;26.56;63.47;-19911.75;4906162;28;45459;-83
2023/06/22 14:35:17;;;;;;;;;9.00;9.00;;;;;26.50;62.72;-19910.28;4898634;28;45579;-82
2023/06/22 14:37:42;;;;;;;;;8.33;8.33;;;;;26.61;62.81;-19913.06;4893978;28;46860;-81
2023/06/22 14:40:08;;;;;;;;;8.33;7.33;;;;;26.64;63.69;-19913.84;4896567;28;45777;-80
2023/06/22 14:42:33;;;;;;;;;7.00;5.67;;;;;26.61;63.54;-19913.19;4896642;28;45361;-82
2023/06/22 14:44:58;;;;;;;;;4.33;4.33;;;;;26.56;62.08;-19911.88;4896138;28;45429;-81
2023/06/22 14:47:24;;;;;;;;;7.33;6.33;;;;;26.64;61.82;-19914.00;4907245;28;45492;-80
2023/06/22 14:49:49;;;;;;;;;5.33;5.33;;;;;26.67;61.46;-19914.78;4897135;28;45456;-81
2023/06/22 14:52:14;;;;;;;;;7.00;6.00;;;;;26.71;60.76;-19915.72;4905990;28;46347;-80
2023/06/22 14:54:40;;;;;;;;;5.00;5.00;;;;;26.79;61.46;-19917.69;4897383;28;45416;-80
2023/06/22 14:57:05;;;;;;;;;8.00;5.00;;;;;26.81;61.67;-19918.22;4898866;28;47091;-80
2023/06/22 14:59:30;;;;;;;;;4.33;4.33;;;;;26.83;61.52;-19918.88;4894381;29;45520;-81
2023/06/22 15:01:56;;;;;;;;;6.00;5.00;;;;;26.90;60.16;-19920.72;4894842;29;45763;-80
2023/06/22 15:04:21;;;;;;;;;7.00;6.00;;;;;26.93;60.69;-19921.53;4911201;28;45694;-80
2023/06/22 15:06:46;;;;;;;;;5.67;5.67;;;;;26.92;58.97;-19921.13;4899730;28;46043;-80
2023/06/22 15:09:12;;;;;;;;;10.67;6.67;;;;;26.95;60.04;-19922.06;4910798;28;45493;-80
2023/06/22 15:11:37;;;;;;;;;8.33;6.33;;;;;26.93;60.87;-19921.38;4916795;28;45446;-80
2023/06/22 15:14:02;;;;;;;;;4.67;4.67;;;;;27.08;60.88;-19925.34;4978901;28;45628;-80
2023/06/22 15:16:28;;;;;;;;;7.33;6.00;;;;;27.04;60.51;-19924.16;4895420;29;45513;-80
2023/06/22 15:18:53;;;;;;;;;6.00;5.00;;;;;27.12;60.84;-19926.28;4916503;28;45385;-80
2023/06/22 15:21:19;;;;;;;;;6.00;6.00;;;;;27.21;60.03;-19928.66;4895503;28;45842;-80
2023/06/22 15:23:45;;;;;;;;;7.00;7.00;;;;;27.16;60.16;-19927.34;4895888;28;45538;-80
2023/06/22 15:26:10;;;;;;;;;6.33;5.00;;;;;27.28;59.87;-19930.50;4895669;29;45391;-80
2023/06/22 15:28:37;;;;;;;;;5.00;5.00;;;;;27.19;59.18;-19928.00;4895154;28;45428;-80
2023/06/22 15:31:04;;;;;;;;;6.00;6.00;;;;;27.26;59.39;-19929.84;4901202;28;45548;-80
2023/06/22 15:33:31;;;;;;;;;5.00;5.00;;;;;27.29;58.62;-19930.78;4896860;28;45748;-81
2023/06/22 15:35:56;;;;;;;;;4.33;4.33;;;;;27.52;57.50;-19936.56;4906369;28;45729;-80
2023/06/22 15:38:22;;;;;;;;;5.00;5.00;;;;;27.54;56.80;-19937.09;4894939;29;45440;-80
2023/06/22 15:40:47;;;;;;;;;5.33;5.33;;;;;27.58;57.49;-19938.28;4894656;28;46482;-80
2023/06/22 15:43:13;;;;;;;;;5.00;5.00;;;;;27.65;58.47;-19939.88;4899888;28;45573;-79
2023/06/22 15:45:39;;;;;;;;;4.33;4.33;;;;;27.70;55.98;-19941.19;4894990;29;47583;-79
2023/06/22 15:48:04;;;;;;;;;4.67;4.67;;;;;27.71;54.83;-19941.59;4898233;28;45803;-79
2023/06/22 15:50:30;;;;;;;;;5.00;4.00;;;;;27.68;54.36;-19940.66;4881303;29;46464;-79
2023/06/22 15:52:55;;;;;;;;;2.00;2.00;;;;;27.69;53.63;-19941.06;4898671;28;45462;-80
2023/06/22 15:55:21;;;;;;;;;4.33;4.33;;;;;27.68;54.72;-19940.81;4897705;29;45457;-79
2023/06/22 15:57:46;;;;;;;;;4.00;4.00;;;;;27.65;54.11;-19939.88;4897187;29;45539;-79
2023/06/22 16:00:14;;;;;;;;;3.50;3.50;;;;;27.69;53.56;-19941.06;4899260;28;45391;-80
2023/06/22 16:02:39;;;;;;;;;5.00;3.00;;;;;27.69;54.62;-19941.06;4901370;28;45562;-79
2023/06/22 16:05:06;;;;;;;;;7.00;4.25;;;;;27.66;53.67;-19940.16;4898506;28;45824;-80
2023/06/22 16:07:32;;;;;;;;;2.33;2.33;;;;;27.69;53.58;-19941.06;4880611;29;45427;-80
2023/06/22 16:09:57;;;;;;;;;5.00;4.33;;;;;27.68;53.73;-19940.81;4923306;28;45928;-79